Southern Baltic, Poland
Current Conditions -  °F | °C
As of 5:30 AM on Saturday 29 Nov 2014 (Local Time) from EPGD Reporting Station
Broken Clouds Broken Clouds  
Wind Chill: 13°   Ceiling: 900
Heat Index: 23°   Visibility: 6mi
Dew Point: 21°   Wind: 9mph
Humidity: 93%   Direction: 120°ESE
Pressure: 30.39"   Gusts: NA
Location:  55.25°N, 18.25°E
Report Text: EPGD 290330Z 12008KT 9999 BKN009 M05/M06 Q1029
Loading
Personal Weather Stations






























Interactive Weather Map New forecast layout! Learn more

10-Day Weather Forecast

Advertisements
Track Severe Weather on mobile